sensor_id;sensor_type;location;lat;lon;timestamp;pressure;altitude;pressure_sealevel;temperature;humidity
84647;BME280;74876;52.404;16.896;2024-03-29T00:10:09;98948.0;;;8.04;69.94
84647;BME280;74876;52.404;16.896;2024-03-29T00:25:10;98965.0;;;7.88;70.56
84647;BME280;74876;52.404;16.896;2024-03-29T00:40:10;99006.0;;;7.74;71.22
84647;BME280;74876;52.404;16.896;2024-03-29T00:55:10;99050.0;;;7.57;71.77
84647;BME280;74876;52.404;16.896;2024-03-29T01:10:09;99079.0;;;7.51;72.14
84647;BME280;74876;52.404;16.896;2024-03-29T01:25:10;99090.0;;;7.66;71.7
84647;BME280;74876;52.404;16.896;2024-03-29T01:40:09;99119.0;;;7.79;71.58
84647;BME280;74876;52.404;16.896;2024-03-29T02:00:10;99159.0;;;8.04;70.6
84647;BME280;74876;52.404;16.896;2024-03-29T02:15:10;99172.0;;;8.14;70.13
84647;BME280;74876;52.404;16.896;2024-03-29T02:30:09;99192.0;;;8.18;69.71
84647;BME280;74876;52.404;16.896;2024-03-29T02:45:10;99201.0;;;8.06;70.35
84647;BME280;74876;52.404;16.896;2024-03-29T03:00:09;99196.0;;;7.78;71.3
84647;BME280;74876;52.404;16.896;2024-03-29T03:15:09;99219.0;;;7.5;72.24
84647;BME280;74876;52.404;16.896;2024-03-29T03:30:10;99207.0;;;7.16;73.57
84647;BME280;74876;52.404;16.896;2024-03-29T03:45:09;99209.0;;;6.87;74.58
84647;BME280;74876;52.404;16.896;2024-03-29T04:00:09;99224.0;;;6.69;75.48
84647;BME280;74876;52.404;16.896;2024-03-29T04:15:09;99222.0;;;6.49;76.03
84647;BME280;74876;52.404;16.896;2024-03-29T04:30:10;99243.0;;;6.39;76.45
84647;BME280;74876;52.404;16.896;2024-03-29T04:50:10;99243.0;;;6.28;76.84
84647;BME280;74876;52.404;16.896;2024-03-29T05:05:10;99259.0;;;6.14;77.0
84647;BME280;74876;52.404;16.896;2024-03-29T05:20:10;99293.0;;;6.21;76.89
84647;BME280;74876;52.404;16.896;2024-03-29T05:35:10;99283.0;;;6.4;76.42
84647;BME280;74876;52.404;16.896;2024-03-29T05:50:10;99272.0;;;6.79;75.01
84647;BME280;74876;52.404;16.896;2024-03-29T06:05:10;99266.0;;;7.36;73.29
84647;BME280;74876;52.404;16.896;2024-03-29T06:20:10;99272.0;;;7.82;71.12
84647;BME280;74876;52.404;16.896;2024-03-29T06:35:09;99316.0;;;8.17;69.45
84647;BME280;74876;52.404;16.896;2024-03-29T06:50:10;99302.0;;;8.64;68.1
84647;BME280;74876;52.404;16.896;2024-03-29T07:05:10;99308.0;;;9.3;65.51
84647;BME280;74876;52.404;16.896;2024-03-29T07:20:09;99331.0;;;9.79;61.49
84647;BME280;74876;52.404;16.896;2024-03-29T07:35:10;99343.0;;;10.08;61.1
84647;BME280;74876;52.404;16.896;2024-03-29T07:50:09;99337.0;;;10.26;59.8
84647;BME280;74876;52.404;16.896;2024-03-29T08:05:09;99360.0;;;10.72;58.68
84647;BME280;74876;52.404;16.896;2024-03-29T08:20:09;99367.0;;;11.27;55.85
84647;BME280;74876;52.404;16.896;2024-03-29T08:35:09;99387.0;;;11.68;54.75
84647;BME280;74876;52.404;16.896;2024-03-29T08:50:10;99400.0;;;12.47;52.23
84647;BME280;74876;52.404;16.896;2024-03-29T09:05:09;99412.0;;;12.62;51.03
84647;BME280;74876;52.404;16.896;2024-03-29T09:20:10;99408.0;;;13.25;49.19
84647;BME280;74876;52.404;16.896;2024-03-29T09:40:10;99414.0;;;13.88;45.3
84647;BME280;74876;52.404;16.896;2024-03-29T09:55:10;99414.0;;;14.05;45.65
84647;BME280;74876;52.404;16.896;2024-03-29T10:10:10;99378.0;;;14.53;42.87
84647;BME280;74876;52.404;16.896;2024-03-29T10:25:10;99398.0;;;15.17;41.72
84647;BME280;74876;52.404;16.896;2024-03-29T10:40:10;99408.0;;;16.0;38.59
84647;BME280;74876;52.404;16.896;2024-03-29T10:55:10;99377.0;;;17.53;36.35
84647;BME280;74876;52.404;16.896;2024-03-29T11:10:10;99370.0;;;18.77;33.42
84647;BME280;74876;52.404;16.896;2024-03-29T11:25:09;99380.0;;;19.78;31.63
84647;BME280;74876;52.404;16.896;2024-03-29T11:40:09;99367.0;;;21.19;30.5
84647;BME280;74876;52.404;16.896;2024-03-29T11:55:10;99357.0;;;19.97;30.96
84647;BME280;74876;52.404;16.896;2024-03-29T12:10:09;99354.0;;;18.7;31.92
84647;BME280;74876;52.404;16.896;2024-03-29T12:25:09;99336.0;;;17.61;32.32
84647;BME280;74876;52.404;16.896;2024-03-29T12:40:09;99314.0;;;19.42;30.35
84647;BME280;74876;52.404;16.896;2024-03-29T12:55:09;99345.0;;;20.22;29.54
84647;BME280;74876;52.404;16.896;2024-03-29T13:10:09;99311.0;;;20.78;28.09
84647;BME280;74876;52.404;16.896;2024-03-29T13:25:09;99327.0;;;19.15;29.82
84647;BME280;74876;52.404;16.896;2024-03-29T13:40:09;99301.0;;;17.95;32.91
84647;BME280;74876;52.404;16.896;2024-03-29T13:55:09;99296.0;;;17.31;33.69
84647;BME280;74876;52.404;16.896;2024-03-29T14:10:09;99270.0;;;17.06;34.38
84647;BME280;74876;52.404;16.896;2024-03-29T14:30:10;99240.0;;;19.31;30.75
84647;BME280;74876;52.404;16.896;2024-03-29T14:45:10;99213.0;;;20.45;29.64
84647;BME280;74876;52.404;16.896;2024-03-29T15:05:09;99209.0;;;19.44;30.57
84647;BME280;74876;52.404;16.896;2024-03-29T15:20:09;99198.0;;;19.95;30.0
84647;BME280;74876;52.404;16.896;2024-03-29T15:35:10;99164.0;;;19.95;30.09
84647;BME280;74876;52.404;16.896;2024-03-29T15:50:09;99177.0;;;18.78;32.6
84647;BME280;74876;52.404;16.896;2024-03-29T16:05:10;99157.0;;;18.14;34.01
84647;BME280;74876;52.404;16.896;2024-03-29T16:20:10;99165.0;;;17.74;35.24
84647;BME280;74876;52.404;16.896;2024-03-29T16:35:09;99149.0;;;17.55;35.87
84647;BME280;74876;52.404;16.896;2024-03-29T16:50:09;99150.0;;;17.03;37.44
84647;BME280;74876;52.404;16.896;2024-03-29T17:05:10;99153.0;;;16.64;38.98
84647;BME280;74876;52.404;16.896;2024-03-29T17:30:10;99166.0;;;16.11;41.09
84647;BME280;74876;52.404;16.896;2024-03-29T17:45:09;99167.0;;;15.87;42.07
84647;BME280;74876;52.404;16.896;2024-03-29T18:00:09;99179.0;;;15.6;43.25
84647;BME280;74876;52.404;16.896;2024-03-29T18:15:09;99201.0;;;15.34;44.42
84647;BME280;74876;52.404;16.896;2024-03-29T18:30:09;99211.0;;;15.24;44.94
84647;BME280;74876;52.404;16.896;2024-03-29T18:45:10;99209.0;;;15.14;45.37
84647;BME280;74876;52.404;16.896;2024-03-29T19:00:10;99214.0;;;15.0;45.95
84647;BME280;74876;52.404;16.896;2024-03-29T19:15:10;99220.0;;;14.75;46.8
84647;BME280;74876;52.404;16.896;2024-03-29T19:30:10;99219.0;;;14.62;48.15
84647;BME280;74876;52.404;16.896;2024-03-29T19:45:10;99218.0;;;14.63;49.88
84647;BME280;74876;52.404;16.896;2024-03-29T20:10:10;99218.0;;;14.72;52.67
84647;BME280;74876;52.404;16.896;2024-03-29T20:25:10;99241.0;;;14.73;53.5
84647;BME280;74876;52.404;16.896;2024-03-29T20:40:10;99258.0;;;14.62;54.94
84647;BME280;74876;52.404;16.896;2024-03-29T20:55:10;99271.0;;;14.48;55.6
84647;BME280;74876;52.404;16.896;2024-03-29T21:10:10;99273.0;;;14.34;56.47
84647;BME280;74876;52.404;16.896;2024-03-29T21:25:10;99272.0;;;14.32;57.03
84647;BME280;74876;52.404;16.896;2024-03-29T21:40:09;99286.0;;;14.23;57.45
84647;BME280;74876;52.404;16.896;2024-03-29T22:00:09;99269.0;;;14.24;58.25
84647;BME280;74876;52.404;16.896;2024-03-29T22:15:09;99295.0;;;14.03;59.3
84647;BME280;74876;52.404;16.896;2024-03-29T22:30:09;99294.0;;;13.85;60.42
84647;BME280;74876;52.404;16.896;2024-03-29T22:45:10;99288.0;;;13.71;61.26
84647;BME280;74876;52.404;16.896;2024-03-29T23:00:10;99284.0;;;13.52;62.66
84647;BME280;74876;52.404;16.896;2024-03-29T23:15:09;99302.0;;;13.36;62.99
84647;BME280;74876;52.404;16.896;2024-03-29T23:30:10;99324.0;;;13.39;62.88
84647;BME280;74876;52.404;16.896;2024-03-29T23:45:09;99309.0;;;13.32;63.88
